createdAt,value
2023-03-11T00:01:52.222Z,1.75
2023-03-11T00:06:54.113Z,1.70
2023-03-11T00:11:55.792Z,1.62
2023-03-11T00:16:58.904Z,1.60
2023-03-11T00:22:02.284Z,1.61
2023-03-11T00:27:04.446Z,1.54
2023-03-11T00:32:07.857Z,1.49
2023-03-11T00:37:12.051Z,1.49
2023-03-11T00:42:13.797Z,1.53
2023-03-11T00:47:17.086Z,1.50
2023-03-11T00:52:18.958Z,1.44
2023-03-11T00:57:20.792Z,1.33
2023-03-11T01:02:23.873Z,1.37
2023-03-11T01:07:25.618Z,1.42
2023-03-11T01:12:27.465Z,1.40
2023-03-11T01:17:30.613Z,1.51
2023-03-11T01:22:32.697Z,1.47
2023-03-11T01:27:34.510Z,1.47
2023-03-11T01:32:37.832Z,1.58
2023-03-11T01:37:39.596Z,1.57
2023-03-11T01:42:41.396Z,1.55
2023-03-11T01:47:44.608Z,1.56
2023-03-11T01:52:46.760Z,1.51
2023-03-11T01:57:49.055Z,1.51
2023-03-11T02:02:52.804Z,1.46
2023-03-11T02:07:55.671Z,1.47
2023-03-11T02:13:02.924Z,1.49
2023-03-11T02:18:06.928Z,1.51
2023-03-11T02:23:08.872Z,1.51
2023-03-11T02:28:13.290Z,1.52
2023-03-11T02:33:15.249Z,1.52
2023-03-11T02:38:19.245Z,1.54
2023-03-11T02:43:25.289Z,1.51
2023-03-11T02:48:27.638Z,1.49
2023-03-11T02:53:31.719Z,1.41
2023-03-11T02:58:34.941Z,1.45
2023-03-11T03:03:36.808Z,1.44
2023-03-11T03:08:38.891Z,1.55
2023-03-11T03:13:42.373Z,1.58
2023-03-11T03:18:44.156Z,1.60
2023-03-11T03:23:46.070Z,1.58
2023-03-11T03:28:49.244Z,1.63
2023-03-11T03:33:51.228Z,1.66
2023-03-11T03:38:54.298Z,1.70
2023-03-11T03:43:58.249Z,1.69
2023-03-11T03:49:00.464Z,1.72
2023-03-11T03:54:04.637Z,1.76
2023-03-11T03:59:07.782Z,1.74
2023-03-11T04:04:15.270Z,1.74
2023-03-11T04:09:17.382Z,1.72
2023-03-11T04:14:21.711Z,1.65
2023-03-11T04:19:30.898Z,1.69
2023-03-11T04:24:32.944Z,1.61
2023-03-11T04:29:37.423Z,1.63
2023-03-11T04:34:39.374Z,1.60
2023-03-11T04:39:41.256Z,1.56
2023-03-11T04:44:44.730Z,1.56
2023-03-11T04:49:46.588Z,1.56
2023-03-11T04:54:48.485Z,1.58
2023-03-11T04:59:51.735Z,1.55
2023-03-11T05:04:53.609Z,1.44
2023-03-11T05:09:55.572Z,1.47
2023-03-11T05:14:59.421Z,1.49
2023-03-11T05:20:01.491Z,1.54
2023-03-11T05:25:07.937Z,1.48
2023-03-11T05:30:15.175Z,1.41
2023-03-11T05:35:18.782Z,1.32
2023-03-11T05:40:20.894Z,1.21
2023-03-11T05:45:24.735Z,1.13
2023-03-11T05:50:28.048Z,1.10
2023-03-11T05:55:30.692Z,1.15
2023-03-11T06:00:34.063Z,1.14
2023-03-11T06:05:44.621Z,1.09
2023-03-11T06:10:48.848Z,1.07
2023-03-11T06:15:53.263Z,1.08
2023-03-11T06:20:58.050Z,1.17
2023-03-11T06:26:00.865Z,1.19
2023-03-11T06:31:09.913Z,1.28
2023-03-11T06:36:12.960Z,1.35
2023-03-11T06:41:14.814Z,1.42
2023-03-11T06:46:18.950Z,1.43
2023-03-11T06:51:21.582Z,1.51
2023-03-11T06:56:24.161Z,1.59
2023-03-11T07:01:35.493Z,1.60
2023-03-11T07:06:41.343Z,1.61
2023-03-11T07:11:48.603Z,1.63
2023-03-11T07:16:59.390Z,1.69
2023-03-11T07:22:06.782Z,1.69
2023-03-11T07:27:08.556Z,1.76
2023-03-11T07:32:11.567Z,1.78
2023-03-11T07:37:14.048Z,1.82
2023-03-11T07:42:15.951Z,1.86
2023-03-11T07:47:19.674Z,1.90
2023-03-11T07:52:21.460Z,1.97
2023-03-11T07:57:23.274Z,1.96
2023-03-11T08:02:26.413Z,2.10
2023-03-11T08:07:28.107Z,2.28
2023-03-11T08:12:29.805Z,2.43
2023-03-11T08:17:32.871Z,2.53
2023-03-11T08:22:34.608Z,2.68
2023-03-11T08:27:36.331Z,2.85
2023-03-11T08:32:39.411Z,3.00
2023-03-11T08:37:41.166Z,3.46
2023-03-11T08:42:42.844Z,10.35
2023-03-11T08:47:45.937Z,15.28
2023-03-11T08:52:47.707Z,17.71
2023-03-11T08:57:49.446Z,19.14
2023-03-11T09:02:52.500Z,20.72
2023-03-11T09:07:54.239Z,21.19
2023-03-11T09:12:55.972Z,22.34
2023-03-11T09:17:59.776Z,20.71
2023-03-11T09:23:01.615Z,19.10
2023-03-11T09:28:03.300Z,17.48
2023-03-11T09:33:06.347Z,14.70
2023-03-11T09:38:08.057Z,12.85
2023-03-11T09:43:14.866Z,14.42
2023-03-11T09:48:22.738Z,15.06
2023-03-11T09:53:29.125Z,17.13
2023-03-11T09:58:37.188Z,19.66
2023-03-11T10:03:40.290Z,18.87
2023-03-11T10:08:52.618Z,13.45
2023-03-11T10:14:00.503Z,14.78
2023-03-11T10:19:06.448Z,16.62
2023-03-11T10:24:17.040Z,18.03
2023-03-11T10:29:20.746Z,15.67
2023-03-11T10:34:26.536Z,18.75
2023-03-11T10:39:28.997Z,19.22
2023-03-11T10:44:32.599Z,21.58
2023-03-11T10:49:35.809Z,22.06
2023-03-11T10:54:41.632Z,19.18
2023-03-11T10:59:46.914Z,17.56
2023-03-11T11:05:05.504Z,17.51
2023-03-11T11:10:18.406Z,17.85
2023-03-11T11:15:22.081Z,18.51
2023-03-11T11:20:25.653Z,15.62
2023-03-11T11:25:30.141Z,12.83
2023-03-11T11:30:32.479Z,11.28
2023-03-11T11:35:35.585Z,10.55
2023-03-11T11:40:37.230Z,10.19
2023-03-11T11:45:39.806Z,9.96
2023-03-11T11:50:44.560Z,9.43
2023-03-11T11:55:49.225Z,9.69
2023-03-11T12:00:58.405Z,9.83
2023-03-11T12:06:02.848Z,9.69
2023-03-11T12:11:05.803Z,9.65
2023-03-11T12:16:12.800Z,9.82
2023-03-11T12:21:23.660Z,9.72
2023-03-11T12:26:26.383Z,9.71
2023-03-11T12:31:29.390Z,9.75
2023-03-11T12:36:33.996Z,9.74
2023-03-11T12:41:39.936Z,9.97
2023-03-11T12:47:02.963Z,9.91
2023-03-11T12:52:19.614Z,9.85
2023-03-11T12:57:32.454Z,9.59
2023-03-11T13:02:43.130Z,9.76
2023-03-11T13:07:50.994Z,10.14
2023-03-11T13:12:52.732Z,9.64
2023-03-11T13:18:01.414Z,9.68
2023-03-11T13:23:21.649Z,9.67
2023-03-11T13:28:44.069Z,9.49
2023-03-11T13:33:49.221Z,8.94
2023-03-11T13:39:22.131Z,9.06
2023-03-11T13:44:28.897Z,9.49
2023-03-11T13:49:33.701Z,9.41
2023-03-11T13:54:39.132Z,8.74
2023-03-11T13:59:40.838Z,8.45
2023-03-11T14:04:44.273Z,8.08
2023-03-11T14:09:47.360Z,8.04
2023-03-11T14:14:51.064Z,7.57
2023-03-11T14:20:04.635Z,7.58
2023-03-11T14:25:08.922Z,7.55
2023-03-11T14:30:18.636Z,7.74
2023-03-11T14:35:20.899Z,7.93
2023-03-11T14:40:25.893Z,7.68
2023-03-11T14:45:29.282Z,7.43
2023-03-11T14:50:32.585Z,7.23
2023-03-11T14:55:40.209Z,7.09
2023-03-11T15:00:43.582Z,6.90
2023-03-11T15:05:47.447Z,6.76
2023-03-11T15:11:04.858Z,6.67
2023-03-11T15:16:07.828Z,6.51
2023-03-11T15:21:13.566Z,6.43
2023-03-11T15:26:20.249Z,6.19
2023-03-11T15:31:40.282Z,6.09
2023-03-11T15:36:44.537Z,5.95
2023-03-11T15:41:48.397Z,5.86
2023-03-11T15:46:50.194Z,5.82
2023-03-11T15:51:51.882Z,5.75
2023-03-11T15:56:55.186Z,5.64
2023-03-11T16:01:56.890Z,5.58
2023-03-11T16:07:07.768Z,5.50
2023-03-11T16:12:14.663Z,5.79
2023-03-11T16:17:16.373Z,6.01
2023-03-11T16:22:19.424Z,5.68
2023-03-11T16:27:22.555Z,5.48
2023-03-11T16:32:24.398Z,5.24
2023-03-11T16:37:26.192Z,5.13
2023-03-11T16:42:29.236Z,5.01
2023-03-11T16:47:30.888Z,4.89
2023-03-11T16:52:32.669Z,4.81
2023-03-11T16:57:37.766Z,4.72
2023-03-11T17:02:39.563Z,4.51
2023-03-11T17:07:41.248Z,4.40
2023-03-11T17:12:44.293Z,4.28
2023-03-11T17:17:46.008Z,4.14
2023-03-11T17:22:47.667Z,4.01
2023-03-11T17:27:51.039Z,3.96
2023-03-11T17:32:52.762Z,3.89
2023-03-11T17:37:54.555Z,3.82
2023-03-11T17:42:57.626Z,3.72
2023-03-11T17:47:59.281Z,3.65
2023-03-11T17:53:00.986Z,3.59
2023-03-11T17:58:03.982Z,3.51
2023-03-11T18:03:05.631Z,3.42
2023-03-11T18:08:07.328Z,3.35
2023-03-11T18:13:10.382Z,3.23
2023-03-11T18:18:12.033Z,3.22
2023-03-11T18:23:13.692Z,3.20
2023-03-11T18:28:16.723Z,3.11
2023-03-11T18:33:18.458Z,2.96
2023-03-11T18:38:20.196Z,2.85
2023-03-11T18:43:23.263Z,2.77
2023-03-11T18:48:24.961Z,2.68
2023-03-11T18:53:26.747Z,2.67
2023-03-11T18:58:29.779Z,2.63
2023-03-11T19:03:31.489Z,2.59
2023-03-11T19:08:33.158Z,2.59
2023-03-11T19:13:46.565Z,2.57
2023-03-11T19:18:49.470Z,2.54
2023-03-11T19:23:54.903Z,2.53
2023-03-11T19:28:58.007Z,2.49
2023-03-11T19:33:59.910Z,2.47
2023-03-11T19:39:01.627Z,2.43
2023-03-11T19:44:04.699Z,2.44
2023-03-11T19:49:06.379Z,2.43
2023-03-11T19:54:08.073Z,2.32
2023-03-11T19:59:11.282Z,2.31
2023-03-11T20:04:14.923Z,2.27
2023-03-11T20:09:17.627Z,2.31
2023-03-11T20:14:20.711Z,2.30
2023-03-11T20:19:22.443Z,2.29
2023-03-11T20:24:24.270Z,2.29
2023-03-11T20:29:27.428Z,2.36
2023-03-11T20:34:29.363Z,2.32
2023-03-11T20:39:31.100Z,2.34
2023-03-11T20:44:34.148Z,2.29
2023-03-11T20:49:35.956Z,2.23
2023-03-11T20:54:37.643Z,2.21
2023-03-11T20:59:40.691Z,2.18
2023-03-11T21:04:44.017Z,2.16
2023-03-11T21:09:45.919Z,2.13
2023-03-11T21:14:49.083Z,2.09
2023-03-11T21:19:50.809Z,2.02
2023-03-11T21:24:52.937Z,2.04
2023-03-11T21:29:56.259Z,2.00
2023-03-11T21:34:58.382Z,1.97
2023-03-11T21:40:00.226Z,1.93
2023-03-11T21:45:03.823Z,1.89
2023-03-11T21:50:06.464Z,1.79
2023-03-11T21:55:08.962Z,1.78
2023-03-11T22:00:13.205Z,1.81
2023-03-11T22:05:15.794Z,1.73
2023-03-11T22:10:17.707Z,1.70
2023-03-11T22:15:21.012Z,1.67
2023-03-11T22:20:22.699Z,1.67
2023-03-11T22:25:24.344Z,1.66
2023-03-11T22:30:27.595Z,1.63
2023-03-11T22:35:29.388Z,1.63
2023-03-11T22:40:31.106Z,1.61
2023-03-11T22:45:34.117Z,1.63
2023-03-11T22:50:35.809Z,1.61
2023-03-11T22:55:38.988Z,1.56
2023-03-11T23:00:44.120Z,1.54
2023-03-11T23:05:46.813Z,1.51
2023-03-11T23:10:48.524Z,1.45
2023-03-11T23:15:51.601Z,1.42
2023-03-11T23:20:53.398Z,1.40
2023-03-11T23:25:55.158Z,1.38
2023-03-11T23:31:03.213Z,1.37
2023-03-11T23:36:06.521Z,1.31
2023-03-11T23:41:09.099Z,1.32
2023-03-11T23:46:12.311Z,1.29
2023-03-11T23:51:14.144Z,1.25
2023-03-11T23:56:19.676Z,1.18
